Flight Track Log - Related Links

Times and Time Zones

All times are in EDT time to prevent confusion due to time zone crossing. See the SWA1821 flight status page for this flight to view local times or setup timezone preferences in your user account.

Time Position Orientation Groundspeed Altitude Reporting Facility
EDT Latitude Longitude Course Direction KTS MPH feet Rate Location/Type
Sun 03:42:46 PM 45.5942 -122.5978 293° West 156 180 900  Level Seattle Center
Sun 03:43:29 PM 45.6072 -122.6419 293° West 195 224 2,800 3,045 Climbing Seattle Center
Sun 03:43:53 PM 45.6167 -122.6667 299° West 192 221 4,300 4,000 Climbing Seattle Center
Sun 03:44:29 PM 45.6328 -122.7147 296° West 216 249 6,800 3,246 Climbing Seattle Center
Sun 03:44:54 PM 45.6308 -122.7486 265° West 226 260 7,600 2,791 Climbing Seattle Center
Sun 03:45:55 PM 45.5647 -122.7544 184° South 285 328 10,800 2,951 Climbing Seattle Center
Sun 03:46:56 PM 45.5181 -122.6372 120° Southeast 340 391 13,600 2,902 Climbing Seattle Center
Sun 03:47:57 PM 45.4686 -122.5119 119° Southeast 359 413 16,700 2,803 Climbing Seattle Center
Sun 03:48:58 PM 45.4144 -122.3764 120° Southeast 389 448 19,300 2,656 Climbing Seattle Center
Sun 03:49:59 PM 45.3600 -122.2381 119° Southeast 399 459 22,100 2,410 Climbing Seattle Center
Sun 03:51:00 PM 45.3003 -122.0897 120° Southeast 425 489 24,200 2,115 Climbing Seattle Center
Sun 03:52:01 PM 45.2353 -121.9108 117° Southeast 450 518 26,400 2,016 Climbing Seattle Center
Sun 03:53:02 PM 45.1944 -121.7361 108° East 467 537 28,300 1,672 Climbing Seattle Center
Sun 03:54:03 PM 45.1469 -121.5564 110° East 488 562 29,800 1,426 Climbing Seattle Center
Sun 03:55:04 PM 45.0989 -121.3697 110° East 504 580 31,200 1,279 Climbing Seattle Center
Sun 03:56:05 PM 45.0472 -121.1772 111° Southeast 522 601 32,400 1,721 Climbing Seattle Center
Sun 03:57:06 PM 44.9961 -120.9808 110° East 533 613 34,700 2,066 Climbing Seattle Center
Sun 03:58:07 PM 44.9461 -120.7958 111° Southeast 511 588 36,600 1,902 Climbing Seattle Center
Sun 03:59:09 PM 44.8869 -120.5786 111° Southeast 498 573 38,600 1,171 Climbing Seattle Center
Sun 04:00:10 PM 44.8308 -120.4064 115° Southeast 490 564 39,000 197 Climbing Seattle Center
Sun 04:01:11 PM 44.7642 -120.2411 120° Southeast 491 565 39,000  Level Seattle Center
Sun 04:02:12 PM 44.6981 -120.0758 119° Southeast 494 568 39,000  Level Seattle Center
Sun 04:03:13 PM 44.6314 -119.9097 119° Southeast 495 570 39,000  Level Seattle Center
Sun 04:04:14 PM 44.5631 -119.7403 119° Southeast 503 579 39,000  Level Seattle Center
Sun 04:05:15 PM 44.4936 -119.5683 119° Southeast 508 585 39,000  Level Seattle Center
Sun 04:06:16 PM 44.4086 -119.3639 120° Southeast 511 588 39,000  Level Seattle Center
Sun 04:07:17 PM 44.3381 -119.1925 120° Southeast 512 589 39,000  Level Seattle Center
Sun 04:08:18 PM 44.2683 -119.0219 120° Southeast 508 585 39,000  Level Seattle Center
Sun 04:09:19 PM 44.1953 -118.8547 121° Southeast 506 582 39,000  Level Seattle Center
Sun 04:10:20 PM 44.1256 -118.6872 120° Southeast 504 580 39,000  Level Seattle Center
Sun 04:11:21 PM 44.0575 -118.5275 121° Southeast 501 577 39,000  Level Seattle Center
Sun 04:12:22 PM 43.9800 -118.3422 120° Southeast 498 573 39,000  Level Seattle Center
Sun 04:13:23 PM 43.9131 -118.1850 121° Southeast 497 572 39,000  Level Seattle Center
Sun 04:14:24 PM 43.8328 -117.9997 121° Southeast 501 577 39,000  Level Seattle Center
Sun 04:15:27 PM 43.7625 -117.8417 122° Southeast 498 573 39,000  Level Salt Lake Center
Sun 04:16:28 PM 43.6836 -117.6600 121° Southeast 494 568 39,000  Level Salt Lake Center
Sun 04:17:30 PM 43.6158 -117.5044 121° Southeast 495 570 39,000  Level Salt Lake Center
Sun 04:18:31 PM 43.5464 -117.3481 121° Southeast 501 577 39,000  Level Salt Lake Center
Sun 04:19:33 PM 43.4669 -117.1672 121° Southeast 498 573 39,000  Level Salt Lake Center
Sun 04:20:35 PM 43.3978 -117.0117 121° Southeast 501 577 39,000  Level Salt Lake Center
Sun 04:21:36 PM 43.3172 -116.8308 121° Southeast 499 574 39,000  Level Salt Lake Center
Sun 04:22:38 PM 43.2472 -116.6747 122° Southeast 503 579 39,000  Level Salt Lake Center
Sun 04:23:40 PM 43.1656 -116.4964 122° Southeast 497 572 39,000  Level Salt Lake Center
Sun 04:24:41 PM 43.0956 -116.3414 122° Southeast 500 575 39,000  Level Salt Lake Center
Sun 04:25:43 PM 43.0256 -116.1900 122° Southeast 495 570 39,000  Level Salt Lake Center
Sun 04:26:44 PM 42.9439 -116.0142 122° Southeast 493 567 39,000  Level Salt Lake Center
Sun 04:27:46 PM 42.8750 -115.8636 122° Southeast 488 562 39,000  Level Salt Lake Center
Sun 04:28:48 PM 42.7936 -115.6881 122° Southeast 491 565 39,000  Level Salt Lake Center
Sun 04:29:49 PM 42.7236 -115.5389 123° Southeast 490 564 39,000  Level Salt Lake Center
Sun 04:30:51 PM 42.6419 -115.3656 123° Southeast 490 564 39,000  Level Salt Lake Center
Sun 04:31:52 PM 42.5717 -115.2183 123° Southeast 486 559 39,000  Level Salt Lake Center
Sun 04:32:54 PM 42.5031 -115.0711 122° Southeast 485 558 39,000  Level Salt Lake Center
Sun 04:33:55 PM 42.4219 -114.9044 123° Southeast 485 558 39,000  Level Salt Lake Center
Sun 04:34:57 PM 42.3553 -114.7644 123° Southeast 486 559 39,000  Level Salt Lake Center
Sun 04:35:58 PM 42.2658 -114.5817 123° Southeast 488 562 39,000  Level Salt Lake Center
Sun 04:37:00 PM 42.1933 -114.4283 123° Southeast 487 560 39,000  Level Salt Lake Center
Sun 04:38:02 PM 42.1175 -114.2781 124° Southeast 486 559 39,000  Level Salt Lake Center
Sun 04:39:03 PM 42.0433 -114.1258 123° Southeast 487 560 39,000  Level Salt Lake Center
Sun 04:40:05 PM 41.9681 -113.9739 124° Southeast 489 563 39,000  Level Salt Lake Center
Sun 04:41:06 PM 41.8939 -113.8233 123° Southeast 488 562 39,000 98 Level Salt Lake Center
Sun 04:42:08 PM 41.8194 -113.6731 124° Southeast 485 558 39,200 439 Climbing Salt Lake Center
Sun 04:43:09 PM 41.7267 -113.4903 124° Southeast 495 570 39,900 829 Climbing Salt Lake Center
Sun 04:44:11 PM 41.6500 -113.3369 124° Southeast 497 572 40,900 537 Climbing Salt Lake Center
Sun 04:45:12 PM 41.5711 -113.1872 125° Southeast 495 570 41,000 49 Climbing Salt Lake Center
Sun 04:46:14 PM 41.4947 -113.0367 124° Southeast 493 567 41,000  Level Salt Lake Center
Sun 04:47:15 PM 41.4181 -112.8847 124° Southeast 495 570 41,000  Level Salt Lake Center
Sun 04:48:16 PM 41.3425 -112.7358 124° Southeast 490 564 41,000  Level Salt Lake Center
Sun 04:49:18 PM 41.2653 -112.5883 125° Southeast 487 560 41,000  Level Salt Lake Center
Sun 04:50:19 PM 41.1886 -112.4408 125° Southeast 486 559 41,000  Level Salt Lake Center
Sun 04:51:21 PM 41.0967 -112.2644 125° Southeast 486 559 41,000  Level Salt Lake Center
Sun 04:52:22 PM 41.0208 -112.1192 125° Southeast 485 558 41,000  Level Salt Lake Center
Sun 04:53:24 PM 40.9450 -111.9769 125° Southeast 484 557 41,000  Level Salt Lake Center
Sun 04:54:25 PM 40.8700 -111.8328 124° Southeast 492 566 41,000  Level Salt Lake Center
Sun 04:55:26 PM 40.7917 -111.6872 125° Southeast 494 568 41,000  Level Salt Lake Center
Sun 04:56:28 PM 40.6972 -111.5100 125° Southeast 496 571 41,000  Level Salt Lake Center
Sun 04:57:29 PM 40.6181 -111.3633 125° Southeast 493 567 41,000  Level Salt Lake Center
Sun 04:58:31 PM 40.5400 -111.2172 125° Southeast 491 565 41,000  Level Salt Lake Center
Sun 04:59:32 PM 40.4603 -111.0719 126° Southeast 492 566 41,000  Level Salt Lake Center
Sun 05:00:34 PM 40.3808 -110.9258 125° Southeast 495 570 41,000  Level Salt Lake Center
Sun 05:01:35 PM 40.2967 -110.7725 126° Southeast 493 567 41,000  Level Salt Lake Center
Sun 05:02:36 PM 40.2208 -110.6333 125° Southeast 491 565 41,000  Level Salt Lake Center
Sun 05:03:38 PM 40.1314 -110.4717 126° Southeast 492 566 41,000  Level Salt Lake Center
Sun 05:04:39 PM 40.0547 -110.3342 126° Southeast 491 565 41,000  Level Salt Lake Center
Sun 05:05:41 PM 39.9656 -110.1742 126° Southeast 489 563 41,000  Level Salt Lake Center
Sun 05:06:42 PM 39.8886 -110.0383 126° Southeast 487 560 41,000  Level Salt Lake Center
Sun 05:07:44 PM 39.8125 -109.9031 126° Southeast 487 560 41,000  Level Salt Lake Center
Sun 05:08:45 PM 39.7222 -109.7458 127° Southeast 487 560 41,000  Level Salt Lake Center
Sun 05:09:47 PM 39.6444 -109.6092 126° Southeast 491 565 41,000  Level Salt Lake Center
Sun 05:10:48 PM 39.5536 -109.4506 127° Southeast 492 566 41,000  Level Salt Lake Center
Sun 05:11:50 PM 39.4756 -109.3142 127° Southeast 494 568 41,000  Level Salt Lake Center
Sun 05:12:10 PM 39.4606 -109.2897 128° Southeast 493 567 41,000  Level Denver Center
Sun 05:13:12 PM 39.3564 -109.1094 127° Southeast 494 568 41,000  Level Denver Center
Sun 05:14:14 PM 39.2775 -108.9739 127° Southeast 498 573 41,000  Level Denver Center
Sun 05:15:16 PM 39.1864 -108.8158 127° Southeast 496 571 41,000  Level Denver Center
Sun 05:16:17 PM 39.1072 -108.6814 127° Southeast 495 570 41,000  Level Denver Center
Sun 05:17:19 PM 39.0158 -108.5264 127° Southeast 487 560 41,000  Level Denver Center
Sun 05:18:20 PM 38.9375 -108.3917 127° Southeast 491 565 41,000  Level Denver Center
Sun 05:19:22 PM 38.8450 -108.2361 127° Southeast 490 564 41,000  Level Denver Center
Sun 05:20:23 PM 38.7794 -108.1253 127° Southeast 490 564 41,000  Level Denver Center
Sun 05:21:25 PM 38.6864 -107.9697 127° Southeast 493 567 41,000  Level Denver Center
Sun 05:22:27 PM 38.5928 -107.8142 128° Southeast 494 568 41,000  Level Denver Center
Sun 05:23:29 PM 38.5117 -107.6811 128° Southeast 497 572 41,000  Level Denver Center
Sun 05:24:30 PM 38.4169 -107.5247 128° Southeast 497 572 41,000  Level Denver Center
Sun 05:25:32 PM 38.3350 -107.3919 128° Southeast 498 573 41,000  Level Denver Center
Sun 05:26:34 PM 38.2389 -107.2356 128° Southeast 502 578 41,000  Level Denver Center
Sun 05:27:35 PM 38.1525 -107.0947 128° Southeast 509 586 41,000  Level Denver Center
Sun 05:28:37 PM 38.0592 -106.9433 128° Southeast 502 578 41,000  Level Denver Center
Sun 05:29:39 PM 37.9772 -106.8097 128° Southeast 503 579 41,000  Level Denver Center
Sun 05:30:40 PM 37.8936 -106.6769 129° Southeast 503 579 41,000  Level Denver Center
Sun 05:31:42 PM 37.7925 -106.5153 128° Southeast 505 581 41,000  Level Denver Center
Sun 05:32:44 PM 37.7083 -106.3822 129° Southeast 505 581 41,000  Level Denver Center
Sun 05:33:45 PM 37.6247 -106.2492 128° Southeast 504 580 41,000  Level Denver Center
Sun 05:34:47 PM 37.5256 -106.0950 129° Southeast 506 582 41,000  Level Denver Center
Sun 05:35:49 PM 37.4492 -105.9733 128° Southeast 471 542 41,000  Level Denver Center
Sun 05:36:50 PM 37.3544 -105.8258 129° Southeast 481 554 41,000  Level Denver Center
Sun 05:37:52 PM 37.2839 -105.6842 122° Southeast 497 572 41,000  Level Denver Center
Sun 05:38:54 PM 37.2158 -105.5406 121° Southeast 493 567 41,000  Level Denver Center
Sun 05:39:55 PM 37.1347 -105.3753 122° Southeast 498 573 41,000  Level Denver Center
Sun 05:40:57 PM 37.0672 -105.2356 121° Southeast 493 567 41,000  Level Denver Center
Sun 05:41:59 PM 36.9922 -105.0828 122° Southeast 492 566 41,000  Level Denver Center
Sun 05:43:00 PM 36.9200 -104.9361 122° Southeast 494 568 41,000  Level Denver Center
Sun 05:44:02 PM 36.8600 -104.8169 122° Southeast 496 571 41,000  Level Denver Center
Sun 05:44:56 PM 36.7786 -104.6517 122° Southeast 496 571 41,000  Level Albuquerque Center
Sun 05:45:58 PM 36.6972 -104.4894 122° Southeast 496 571 41,000  Level Albuquerque Center
Sun 05:47:00 PM 36.6114 -104.3433 126° Southeast 489 563 41,000  Level Albuquerque Center
Sun 05:48:02 PM 36.5078 -104.2339 140° Southeast 483 556 41,000  Level Albuquerque Center
Sun 05:49:03 PM 36.4047 -104.1267 140° Southeast 480 552 41,000  Level Albuquerque Center
Sun 05:50:05 PM 36.3006 -104.0206 141° Southeast 480 552 41,000  Level Albuquerque Center
Sun 05:51:07 PM 36.1969 -103.9142 140° Southeast 478 550 41,000  Level Albuquerque Center
Sun 05:52:09 PM 36.0914 -103.8033 140° Southeast 486 559 41,000  Level Albuquerque Center
Sun 05:53:11 PM 35.9858 -103.6958 140° Southeast 486 559 41,000  Level Albuquerque Center
Sun 05:54:13 PM 35.8811 -103.5886 140° Southeast 485 558 41,000  Level Albuquerque Center
Sun 05:55:14 PM 35.7742 -103.4789 140° Southeast 490 564 41,000  Level Albuquerque Center
Sun 05:56:16 PM 35.6686 -103.3703 140° Southeast 489 563 41,000  Level Albuquerque Center
Sun 05:57:18 PM 35.5419 -103.2431 141° Southeast 495 570 41,000  Level Albuquerque Center
Sun 05:58:20 PM 35.4350 -103.1339 140° Southeast 494 568 41,000  Level Albuquerque Center
Sun 05:59:22 PM 35.3269 -103.0256 141° Southeast 495 570 41,000  Level Albuquerque Center
Sun 06:00:24 PM 35.2189 -102.9194 141° Southeast 496 571 41,000  Level Albuquerque Center
Sun 06:01:25 PM 35.1139 -102.8139 141° Southeast 493 567 41,000  Level Albuquerque Center
Sun 06:02:27 PM 35.0031 -102.7047 141° Southeast 493 567 41,000  Level Albuquerque Center
Sun 06:03:29 PM 34.9025 -102.6047 141° Southeast 492 566 41,000  Level Albuquerque Center
Sun 06:04:31 PM 34.7775 -102.4808 141° Southeast 488 562 41,000  Level Albuquerque Center
Sun 06:05:33 PM 34.6722 -102.3786 141° Southeast 487 560 41,000  Level Albuquerque Center
Sun 06:06:35 PM 34.5681 -102.2739 140° Southeast 489 563 41,000  Level Albuquerque Center
Sun 06:07:36 PM 34.4622 -102.1717 141° Southeast 490 564 41,000  Level Albuquerque Center
Sun 06:08:38 PM 34.3556 -102.0678 141° Southeast 492 566 41,000  Level Albuquerque Center
Sun 06:09:40 PM 34.2514 -101.9639 140° Southeast 490 564 41,000  Level Albuquerque Center
Sun 06:10:45 PM 34.1297 -101.8619 145° Southeast 492 566 41,000  Level Fort Worth Center
Sun 06:11:45 PM 34.0156 -101.7833 150° Southeast 481 554 41,000  Level Fort Worth Center
Sun 06:12:45 PM 33.8875 -101.6894 149° Southeast 481 554 41,000  Level Fort Worth Center
Sun 06:13:45 PM 33.7947 -101.5947 140° Southeast 491 565 41,000  Level Fort Worth Center
Sun 06:14:45 PM 33.6772 -101.4819 141° Southeast 502 578 41,000  Level Fort Worth Center
Sun 06:15:45 PM 33.5844 -101.3853 139° Southeast 502 578 41,000  Level Fort Worth Center
Sun 06:16:45 PM 33.4628 -101.2728 142° Southeast 496 571 41,000  Level Fort Worth Center
Sun 06:17:45 PM 33.3694 -101.1792 140° Southeast 496 571 41,000  Level Fort Worth Center
Sun 06:18:45 PM 33.2539 -101.0700 142° Southeast 486 559 41,000  Level Fort Worth Center
Sun 06:19:45 PM 33.1500 -100.9739 142° Southeast 486 559 41,000  Level Fort Worth Center
Sun 06:20:57 PM 33.0444 -100.8756 142° Southeast 481 554 41,000  Level Fort Worth Center
Sun 06:21:57 PM 32.9222 -100.7569 141° Southeast 481 554 41,000  Level Fort Worth Center
Sun 06:22:57 PM 32.8144 -100.6564 142° Southeast 481 554 41,000  Level Fort Worth Center
Sun 06:23:57 PM 32.7106 -100.5564 141° Southeast 481 554 41,000  Level Fort Worth Center
Sun 06:24:57 PM 32.6042 -100.4589 142° Southeast 481 554 41,000  Level Fort Worth Center
Sun 06:25:57 PM 32.5003 -100.3569 140° Southeast 481 554 41,000  Level Fort Worth Center
Sun 06:26:57 PM 32.4144 -100.2753 141° Southeast 486 559 41,000  Level Fort Worth Center
Sun 06:27:57 PM 32.2878 -100.1558 141° Southeast 486 559 41,000 -250 Level Fort Worth Center
Sun 06:28:57 PM 32.1894 -100.0644 142° Southeast 491 565 40,500 -750 Descending Fort Worth Center
Sun 06:29:57 PM 32.0828 -99.9683 143° Southeast 491 565 39,500 -750 Descending Fort Worth Center
Sun 06:30:57 PM 31.9764 -99.8672 141° Southeast 491 565 39,000 -250 Descending Fort Worth Center
Sun 06:31:57 PM 31.8697 -99.7667 141° Southeast 491 565 39,000 -746 Level Fort Worth Center
Sun 06:34:18 PM 31.6261 -99.5408 142° Southeast 485 558 36,500 -1,773 Descending Houston Center
Sun 06:35:20 PM 31.4969 -99.4253 143° Southeast 490 564 33,000 -2,661 Descending Houston Center
Sun 06:36:22 PM 31.3978 -99.3050 134° Southeast 507 583 31,000 -1,403 Descending Houston Center
Sun 06:37:24 PM 31.3253 -99.1642 121° Southeast 506 582 30,100 -919 Descending Houston Center
Sun 06:38:26 PM 31.2506 -99.0264 122° Southeast 499 574 29,100 -1,016 Descending Houston Center
Sun 06:39:28 PM 31.1753 -98.8903 123° Southeast 495 570 28,000 -1,839 Descending Houston Center
Sun 06:40:30 PM 31.1011 -98.7572 123° Southeast 484 557 25,300 -2,613 Descending Houston Center
Sun 06:41:32 PM 31.0311 -98.6314 123° Southeast 464 534 22,600 -2,758 Descending Houston Center
Sun 06:42:34 PM 30.9536 -98.4914 123° Southeast 442 509 19,600 -2,806 Descending Houston Center
Sun 06:43:36 PM 30.8892 -98.3767 123° Southeast 424 488 16,800 -2,565 Descending Houston Center
Sun 06:44:38 PM 30.8281 -98.2669 123° Southeast 405 466 14,300 -2,419 Descending Houston Center
Sun 06:45:40 PM 30.7678 -98.1614 124° Southeast 392 451 11,800 -2,129 Descending Houston Center
Sun 06:46:42 PM 30.7100 -98.0608 124° Southeast 378 435 9,900 -1,065 Descending Houston Center
Sun 06:47:44 PM 30.6564 -97.9794 127° Southeast 327 376 9,600 -919 Descending Houston Center
Sun 06:48:46 PM 30.5961 -97.9203 140° Southeast 291 335 8,000 -1,645 Descending Houston Center
Sun 06:49:48 PM 30.5281 -97.8544 140° Southeast 276 318 6,200 -1,548 Descending Houston Center
Sun 06:50:50 PM 30.4703 -97.8047 143° Southeast 262 302 4,800 -1,403 Descending Houston Center
Sun 06:51:52 PM 30.4086 -97.7631 150° Southeast 258 297 3,300 -1,306 Descending Houston Center
Sun 06:52:54 PM 30.3492 -97.7206 148° Southeast 253 291 2,100 -629 Descending Houston Center
Sun 06:53:56 PM 30.3008 -97.6864 149° Southeast 227 261 2,000 -290 Descending Houston Center
Sun 06:54:58 PM 30.2672 -97.6803 171° South 161 185 1,500 -532 Descending Houston Center
Sun 06:56:00 PM 30.2306 -97.6792 179° South 138 159 900 -581 Descending Houston Center
Sun 06:57:00 PM 30.1945 -97.6699 221° Southwest  Level Estimated
Sun 07:04:00 PM 30.1945 -97.6699 221° Southwest  Level Estimated

Login

Don't have an account? Register now (free) for customized features, flight alerts, and more!